createdAt,value
2023-01-19T00:01:15.520Z,3.13
2023-01-19T00:03:44.205Z,2.93
2023-01-19T00:06:12.912Z,3.47
2023-01-19T00:08:41.553Z,3.20
2023-01-19T00:11:10.171Z,2.93
2023-01-19T00:13:40.614Z,3.50
2023-01-19T00:16:09.599Z,3.20
2023-01-19T00:18:38.242Z,3.47
2023-01-19T00:21:07.171Z,3.60
2023-01-19T00:23:35.751Z,3.80
2023-01-19T00:26:04.462Z,3.10
2023-01-19T00:28:33.030Z,3.83
2023-01-19T00:31:03.141Z,3.87
2023-01-19T00:33:31.864Z,3.17
2023-01-19T00:36:00.507Z,3.13
2023-01-19T00:38:29.124Z,2.93
2023-01-19T00:40:57.842Z,3.60
2023-01-19T00:43:25.429Z,2.87
2023-01-19T00:45:54.116Z,3.20
2023-01-19T00:48:24.135Z,3.07
2023-01-19T00:50:52.771Z,3.23
2023-01-19T00:53:21.375Z,2.60
2023-01-19T00:55:50.071Z,2.83
2023-01-19T00:58:18.727Z,3.00
2023-01-19T01:00:47.365Z,3.03
2023-01-19T01:03:16.132Z,2.73
2023-01-19T01:05:46.102Z,2.77
2023-01-19T01:08:14.633Z,3.47
2023-01-19T01:10:43.282Z,3.27
2023-01-19T01:13:20.898Z,3.30
2023-01-19T01:15:52.260Z,3.07
2023-01-19T01:18:21.527Z,2.60
2023-01-19T01:20:51.548Z,2.70
2023-01-19T01:23:23.058Z,3.27
2023-01-19T01:25:51.859Z,2.90
2023-01-19T01:28:20.441Z,4.07
2023-01-19T01:30:49.360Z,3.07
2023-01-19T01:33:41.128Z,2.80
2023-01-19T01:36:09.225Z,2.73
2023-01-19T01:38:38.757Z,2.73
2023-01-19T01:41:07.351Z,2.37
2023-01-19T01:43:47.287Z,3.37
2023-01-19T01:46:18.125Z,2.53
2023-01-19T01:48:52.281Z,2.80
2023-01-19T01:51:27.629Z,2.77
2023-01-19T01:54:14.924Z,2.63
2023-01-19T01:56:46.395Z,2.27
2023-01-19T01:59:26.183Z,3.27
2023-01-19T02:02:15.594Z,3.27
2023-01-19T02:04:48.872Z,3.60
2023-01-19T02:07:42.167Z,2.70
2023-01-19T02:10:29.062Z,3.13
2023-01-19T02:13:17.076Z,3.60
2023-01-19T02:15:46.064Z,3.53
2023-01-19T02:18:14.679Z,4.27
2023-01-19T02:20:49.048Z,4.10
2023-01-19T02:23:26.096Z,4.37
2023-01-19T02:25:56.317Z,3.67
2023-01-19T02:28:26.117Z,4.23
2023-01-19T02:30:54.819Z,5.47
2023-01-19T02:33:23.591Z,5.30
2023-01-19T02:35:53.500Z,4.60
2023-01-19T02:38:22.602Z,4.73
2023-01-19T02:40:51.868Z,5.50
2023-01-19T02:43:23.068Z,5.40
2023-01-19T02:45:52.635Z,5.37
2023-01-19T02:48:22.479Z,5.23
2023-01-19T02:50:53.761Z,6.13
2023-01-19T02:53:49.738Z,5.27
2023-01-19T02:56:37.439Z,5.53
2023-01-19T02:59:15.716Z,6.23
2023-01-19T03:02:16.828Z,6.27
2023-01-19T03:04:59.613Z,7.00
2023-01-19T03:07:39.502Z,6.77
2023-01-19T03:10:13.899Z,6.30
2023-01-19T03:12:47.551Z,7.03
2023-01-19T03:15:23.665Z,8.00
2023-01-19T03:17:54.481Z,7.13
2023-01-19T03:20:29.029Z,6.73
2023-01-19T03:23:03.285Z,6.67
2023-01-19T03:25:36.023Z,7.73
2023-01-19T03:28:06.411Z,7.70
2023-01-19T03:30:41.756Z,8.13
2023-01-19T03:33:14.717Z,9.40
2023-01-19T03:35:47.813Z,8.70
2023-01-19T03:38:20.038Z,8.53
2023-01-19T03:40:49.758Z,8.77
2023-01-19T03:43:19.893Z,8.67
2023-01-19T03:45:50.491Z,9.30
2023-01-19T03:48:19.333Z,9.43
2023-01-19T03:50:47.914Z,9.50
2023-01-19T03:53:18.304Z,11.07
2023-01-19T03:55:49.679Z,10.73
2023-01-19T03:58:19.241Z,10.20
2023-01-19T04:00:49.534Z,9.90
2023-01-19T04:03:19.864Z,12.00
2023-01-19T04:05:48.722Z,11.40
2023-01-19T04:08:17.305Z,10.13
2023-01-19T04:10:45.918Z,9.80
2023-01-19T04:13:15.584Z,9.30
2023-01-19T04:15:44.232Z,9.50
2023-01-19T04:18:14.269Z,9.97
2023-01-19T04:20:42.887Z,9.73
2023-01-19T04:23:13.042Z,9.73
2023-01-19T04:25:41.681Z,8.07
2023-01-19T04:28:10.287Z,9.00
2023-01-19T04:30:38.942Z,9.27
2023-01-19T04:33:07.530Z,8.57
2023-01-19T04:35:37.505Z,8.00
2023-01-19T04:38:06.981Z,7.93
2023-01-19T04:40:35.546Z,7.17
2023-01-19T04:43:04.424Z,8.00
2023-01-19T04:45:33.218Z,8.20
2023-01-19T04:48:02.015Z,7.60
2023-01-19T04:50:30.582Z,7.63
2023-01-19T04:53:01.087Z,7.17
2023-01-19T04:55:30.045Z,7.83
2023-01-19T04:57:58.651Z,6.67
2023-01-19T05:00:27.710Z,6.97
2023-01-19T05:02:56.530Z,7.17
2023-01-19T05:05:25.332Z,6.50
2023-01-19T05:07:53.986Z,7.10
2023-01-19T05:10:24.124Z,8.20
2023-01-19T05:12:53.637Z,6.67
2023-01-19T05:15:22.285Z,6.27
2023-01-19T05:17:51.090Z,6.70
2023-01-19T05:20:19.966Z,7.37
2023-01-19T05:22:51.943Z,6.87
2023-01-19T05:25:21.031Z,7.90
2023-01-19T05:27:51.110Z,7.50
2023-01-19T05:30:20.158Z,7.30
2023-01-19T05:32:48.788Z,7.37
2023-01-19T05:35:20.108Z,5.93
2023-01-19T05:37:54.548Z,5.77
2023-01-19T05:40:23.168Z,5.80
2023-01-19T05:42:53.488Z,6.60
2023-01-19T05:45:22.107Z,6.00
2023-01-19T05:47:51.133Z,6.90
2023-01-19T05:50:20.331Z,5.27
2023-01-19T05:52:48.918Z,4.83
2023-01-19T05:55:17.814Z,4.97
2023-01-19T05:57:46.517Z,5.00
2023-01-19T06:00:17.607Z,4.90
2023-01-19T06:02:49.450Z,5.20
2023-01-19T06:05:18.406Z,4.63
2023-01-19T06:07:47.100Z,5.60
2023-01-19T06:10:15.792Z,5.40
2023-01-19T06:12:44.495Z,4.73
2023-01-19T06:15:14.671Z,5.57
2023-01-19T06:17:44.725Z,5.50
2023-01-19T06:20:15.274Z,5.87
2023-01-19T06:22:44.038Z,5.23
2023-01-19T06:25:13.214Z,5.37
2023-01-19T06:27:45.715Z,5.40
2023-01-19T06:30:15.098Z,5.53
2023-01-19T06:32:45.121Z,5.30
2023-01-19T06:35:15.076Z,5.33
2023-01-19T06:37:43.656Z,5.67
2023-01-19T06:40:14.506Z,5.07
2023-01-19T06:42:43.468Z,6.47
2023-01-19T06:45:12.505Z,6.33
2023-01-19T06:47:41.232Z,5.70
2023-01-19T06:50:12.428Z,6.07
2023-01-19T06:52:42.868Z,6.43
2023-01-19T06:55:12.310Z,7.00
2023-01-19T06:57:41.096Z,5.47
2023-01-19T07:00:11.833Z,5.97
2023-01-19T07:02:43.824Z,5.93
2023-01-19T07:05:14.602Z,6.60
2023-01-19T07:07:46.166Z,6.23
2023-01-19T07:10:16.627Z,6.23
2023-01-19T07:12:46.609Z,6.67
2023-01-19T07:15:16.038Z,5.53
2023-01-19T07:17:45.061Z,6.57
2023-01-19T07:20:15.658Z,6.00
2023-01-19T07:22:45.913Z,5.93
2023-01-19T07:25:15.131Z,4.93
2023-01-19T07:27:45.113Z,6.67
2023-01-19T07:30:17.160Z,5.90
2023-01-19T07:32:45.840Z,5.73
2023-01-19T07:35:15.994Z,5.77
2023-01-19T07:37:44.708Z,6.03
2023-01-19T07:40:13.968Z,5.77
2023-01-19T07:42:48.769Z,6.00
2023-01-19T07:45:17.699Z,6.07
2023-01-19T07:47:46.343Z,5.40
2023-01-19T07:50:18.289Z,7.23
2023-01-19T07:52:47.005Z,6.67
2023-01-19T07:55:15.582Z,7.27
2023-01-19T07:57:44.251Z,7.47
2023-01-19T08:00:14.714Z,7.17
2023-01-19T08:02:44.176Z,7.30
2023-01-19T08:05:13.584Z,6.77
2023-01-19T08:07:45.210Z,7.20
2023-01-19T08:10:14.761Z,6.27
2023-01-19T08:12:43.484Z,7.53
2023-01-19T08:15:12.708Z,5.90
2023-01-19T08:17:41.311Z,6.57
2023-01-19T08:20:11.321Z,6.70
2023-01-19T08:22:39.923Z,7.53
2023-01-19T08:25:10.901Z,7.07
2023-01-19T08:27:39.516Z,7.53
2023-01-19T08:30:09.171Z,7.50
2023-01-19T08:32:37.839Z,6.93
2023-01-19T08:35:07.663Z,7.40
2023-01-19T08:37:36.284Z,7.43
2023-01-19T08:40:05.402Z,8.30
2023-01-19T08:42:35.462Z,7.70
2023-01-19T08:45:04.163Z,7.57
2023-01-19T08:47:32.795Z,8.03
2023-01-19T08:50:01.483Z,9.10
2023-01-19T08:52:30.813Z,9.73
2023-01-19T08:54:59.411Z,9.53
2023-01-19T08:57:29.350Z,8.43
2023-01-19T08:59:59.411Z,8.80
2023-01-19T09:02:28.037Z,10.33
2023-01-19T09:04:56.747Z,9.43
2023-01-19T09:07:25.944Z,8.33
2023-01-19T09:09:54.628Z,9.30
2023-01-19T09:12:23.222Z,9.37
2023-01-19T09:14:52.007Z,9.43
2023-01-19T09:17:22.174Z,9.73
2023-01-19T09:19:51.040Z,10.30
2023-01-19T09:22:19.649Z,8.20
2023-01-19T09:24:48.282Z,9.57
2023-01-19T09:27:16.902Z,9.70
2023-01-19T09:29:52.507Z,8.83
2023-01-19T09:32:23.203Z,9.03
2023-01-19T09:34:52.590Z,8.50
2023-01-19T09:37:21.289Z,10.47
2023-01-19T09:39:49.901Z,9.50
2023-01-19T09:42:25.536Z,9.40
2023-01-19T09:44:55.729Z,10.50
2023-01-19T09:47:29.774Z,8.93
2023-01-19T09:50:03.725Z,9.10
2023-01-19T09:52:36.503Z,7.20
2023-01-19T09:55:06.848Z,7.70
2023-01-19T09:57:36.367Z,4.67
2023-01-19T10:00:14.901Z,5.10
2023-01-19T10:02:49.840Z,4.70
2023-01-19T10:05:28.863Z,3.40
2023-01-19T10:08:10.534Z,5.07
2023-01-19T10:10:43.207Z,5.53
2023-01-19T10:13:29.040Z,4.87
2023-01-19T10:16:10.966Z,5.37
2023-01-19T10:18:47.906Z,6.00
2023-01-19T10:21:20.549Z,5.30
2023-01-19T10:23:53.519Z,5.07
2023-01-19T10:26:25.700Z,4.77
2023-01-19T10:28:59.188Z,5.63
2023-01-19T10:31:28.005Z,6.53
2023-01-19T10:33:58.564Z,6.27
2023-01-19T10:36:31.453Z,6.20
2023-01-19T10:39:00.177Z,6.33
2023-01-19T10:41:36.641Z,6.77
2023-01-19T10:44:07.281Z,4.37
2023-01-19T10:46:43.626Z,4.70
2023-01-19T10:49:26.889Z,5.70
2023-01-19T10:51:56.557Z,6.60
2023-01-19T10:54:27.265Z,5.87
2023-01-19T10:56:59.187Z,5.30
2023-01-19T10:59:36.829Z,4.47
2023-01-19T11:02:19.771Z,5.80
2023-01-19T11:04:53.197Z,5.87
2023-01-19T11:07:24.006Z,6.20
2023-01-19T11:10:21.395Z,5.77
2023-01-19T11:13:01.525Z,5.30
2023-01-19T11:15:34.918Z,7.43
2023-01-19T11:18:06.124Z,5.60
2023-01-19T11:20:49.366Z,7.10
2023-01-19T11:23:26.309Z,6.53
2023-01-19T11:25:57.538Z,6.07
2023-01-19T11:28:30.944Z,8.27
2023-01-19T11:31:02.383Z,7.03
2023-01-19T11:33:37.503Z,7.03
2023-01-19T11:36:16.723Z,9.23
2023-01-19T11:38:46.890Z,7.17
2023-01-19T11:41:19.985Z,9.17
2023-01-19T11:43:51.482Z,7.70
2023-01-19T11:46:21.093Z,8.10
2023-01-19T11:48:58.231Z,7.43
2023-01-19T11:51:32.035Z,8.80
2023-01-19T11:54:04.101Z,8.63
2023-01-19T11:56:33.799Z,8.27
2023-01-19T11:59:05.178Z,7.43
2023-01-19T12:01:38.756Z,7.77
2023-01-19T12:04:13.292Z,6.73
2023-01-19T12:06:47.902Z,7.80
2023-01-19T12:09:20.953Z,7.77
2023-01-19T12:11:54.989Z,5.20
2023-01-19T12:14:27.232Z,4.93
2023-01-19T12:17:01.664Z,3.70
2023-01-19T12:19:42.128Z,3.77
2023-01-19T12:22:17.093Z,3.77
2023-01-19T12:24:50.830Z,3.97
2023-01-19T12:27:28.392Z,3.63
2023-01-19T12:29:58.044Z,3.97
2023-01-19T12:32:34.997Z,3.27
2023-01-19T12:35:03.800Z,3.00
2023-01-19T12:37:44.822Z,3.03
2023-01-19T12:40:27.324Z,3.23
2023-01-19T12:43:03.995Z,2.60
2023-01-19T12:45:34.803Z,3.03
2023-01-19T12:48:05.024Z,3.43
2023-01-19T12:50:38.052Z,3.20
2023-01-19T12:53:19.912Z,3.07
2023-01-19T12:56:00.197Z,3.07
2023-01-19T12:58:29.318Z,3.70
2023-01-19T13:01:16.744Z,6.37
2023-01-19T13:03:59.803Z,2.90
2023-01-19T13:07:06.267Z,3.93
2023-01-19T13:09:37.499Z,3.53
2023-01-19T13:12:23.340Z,4.17
2023-01-19T13:14:52.164Z,3.27
2023-01-19T13:17:34.487Z,4.83
2023-01-19T13:20:25.030Z,3.00
2023-01-19T13:23:17.507Z,2.83
2023-01-19T13:25:54.113Z,5.03
2023-01-19T13:28:31.826Z,3.73
2023-01-19T13:31:02.892Z,4.03
2023-01-19T13:33:41.185Z,3.77
2023-01-19T13:36:27.023Z,3.37
2023-01-19T13:38:58.175Z,2.70
2023-01-19T13:41:31.831Z,3.83
2023-01-19T13:44:06.738Z,2.70
2023-01-19T13:46:38.731Z,2.70
2023-01-19T13:49:16.924Z,2.83
2023-01-19T13:51:45.687Z,2.83
2023-01-19T13:54:17.872Z,2.40
2023-01-19T13:56:51.308Z,2.80
2023-01-19T13:59:20.519Z,2.50
2023-01-19T14:01:51.197Z,2.97
2023-01-19T14:04:29.614Z,3.57
2023-01-19T14:07:02.053Z,3.03
2023-01-19T14:09:30.980Z,3.63
2023-01-19T14:12:25.910Z,4.07
2023-01-19T14:14:54.833Z,3.97
2023-01-19T14:17:25.914Z,3.80
2023-01-19T14:19:56.519Z,4.40
2023-01-19T14:22:39.889Z,3.50
2023-01-19T14:25:30.389Z,4.40
2023-01-19T14:28:29.895Z,3.87
2023-01-19T14:31:00.440Z,3.70
2023-01-19T14:33:36.809Z,3.37
2023-01-19T14:36:33.415Z,4.20
2023-01-19T14:39:03.231Z,3.60
2023-01-19T14:41:39.159Z,2.70
2023-01-19T14:44:13.322Z,2.83
2023-01-19T14:46:48.484Z,2.70
2023-01-19T14:49:23.079Z,3.47
2023-01-19T14:51:52.283Z,3.20
2023-01-19T14:54:28.942Z,3.10
2023-01-19T14:56:57.669Z,2.97
2023-01-19T14:59:28.009Z,3.00
2023-01-19T15:01:56.869Z,3.20
2023-01-19T15:04:26.228Z,3.17
2023-01-19T15:06:56.221Z,2.80
2023-01-19T15:09:25.560Z,2.87
2023-01-19T15:11:55.032Z,2.57
2023-01-19T15:14:23.871Z,3.23
2023-01-19T15:16:53.987Z,2.93
2023-01-19T15:19:22.560Z,2.80
2023-01-19T15:21:51.155Z,2.83
2023-01-19T15:24:19.892Z,3.07
2023-01-19T15:26:48.702Z,2.87
2023-01-19T15:29:26.510Z,2.63
2023-01-19T15:31:56.677Z,3.13
2023-01-19T15:34:25.346Z,2.60
2023-01-19T15:36:54.033Z,2.47
2023-01-19T15:39:22.635Z,2.60
2023-01-19T15:41:51.319Z,2.73
2023-01-19T15:44:20.461Z,2.97
2023-01-19T15:46:49.173Z,2.50
2023-01-19T15:49:19.255Z,3.00
2023-01-19T15:51:47.973Z,2.57
2023-01-19T15:54:18.295Z,2.33
2023-01-19T15:56:47.288Z,2.57
2023-01-19T15:59:15.913Z,2.90
2023-01-19T16:01:44.824Z,2.43
2023-01-19T16:04:13.522Z,2.60
2023-01-19T16:06:43.702Z,3.13
2023-01-19T16:09:18.845Z,2.53
2023-01-19T16:11:47.878Z,2.80
2023-01-19T16:14:17.644Z,2.87
2023-01-19T16:16:46.569Z,2.67
2023-01-19T16:19:16.732Z,2.97
2023-01-19T16:21:46.856Z,2.47
2023-01-19T16:24:15.414Z,2.90
2023-01-19T16:26:46.287Z,3.10
2023-01-19T16:29:15.349Z,3.13
2023-01-19T16:31:45.745Z,3.50
2023-01-19T16:34:14.649Z,2.20
2023-01-19T16:36:44.088Z,3.23
2023-01-19T16:39:15.587Z,3.13
2023-01-19T16:41:45.811Z,3.80
2023-01-19T16:44:15.662Z,4.10
2023-01-19T16:46:46.154Z,3.40
2023-01-19T16:49:16.772Z,3.50
2023-01-19T16:51:45.907Z,3.73
2023-01-19T16:54:16.897Z,3.80
2023-01-19T16:56:45.705Z,3.23
2023-01-19T16:59:16.342Z,3.80
2023-01-19T17:01:46.678Z,4.23
2023-01-19T17:04:15.875Z,4.57
2023-01-19T17:06:44.648Z,3.70
2023-01-19T17:09:13.359Z,4.40
2023-01-19T17:11:43.793Z,4.87
2023-01-19T17:14:14.886Z,5.47
2023-01-19T17:16:44.369Z,4.17
2023-01-19T17:19:16.640Z,5.20
2023-01-19T17:21:46.830Z,4.63
2023-01-19T17:24:15.559Z,5.40
2023-01-19T17:26:48.812Z,5.57
2023-01-19T17:29:18.314Z,5.23
2023-01-19T17:31:47.198Z,4.40
2023-01-19T17:34:15.899Z,5.00
2023-01-19T17:36:44.945Z,5.93
2023-01-19T17:39:15.120Z,6.57
2023-01-19T17:41:45.363Z,5.97
2023-01-19T17:44:14.003Z,5.40
2023-01-19T17:46:42.654Z,5.70
2023-01-19T17:49:12.652Z,5.53
2023-01-19T17:51:41.337Z,5.30
2023-01-19T17:54:10.893Z,4.77
2023-01-19T17:56:41.463Z,4.13
2023-01-19T17:59:11.604Z,3.63
2023-01-19T18:01:40.844Z,3.60
2023-01-19T18:04:10.240Z,3.63
2023-01-19T18:06:39.188Z,3.67
2023-01-19T18:09:08.201Z,4.17
2023-01-19T18:11:37.373Z,4.00
2023-01-19T18:14:06.865Z,4.00
2023-01-19T18:16:37.218Z,4.17
2023-01-19T18:19:05.884Z,4.37
2023-01-19T18:21:34.450Z,4.30
2023-01-19T18:24:05.660Z,3.70
2023-01-19T18:26:35.851Z,4.43
2023-01-19T18:29:04.545Z,4.83
2023-01-19T18:31:33.191Z,4.30
2023-01-19T18:34:03.408Z,3.40
2023-01-19T18:36:47.288Z,3.20
2023-01-19T18:39:15.958Z,3.53
2023-01-19T18:41:44.609Z,3.50
2023-01-19T18:44:14.196Z,2.80
2023-01-19T18:46:43.054Z,3.83
2023-01-19T18:49:13.197Z,3.27
2023-01-19T18:51:42.129Z,3.67
2023-01-19T18:54:12.655Z,3.43
2023-01-19T18:56:41.337Z,3.43
2023-01-19T18:59:10.896Z,3.30
2023-01-19T19:01:39.668Z,3.53
2023-01-19T19:04:08.673Z,3.60
2023-01-19T19:06:38.718Z,3.87
2023-01-19T19:09:07.520Z,3.50
2023-01-19T19:11:36.604Z,3.83
2023-01-19T19:14:05.439Z,3.17
2023-01-19T19:16:36.179Z,3.47
2023-01-19T19:19:06.142Z,2.63
2023-01-19T19:21:34.781Z,3.90
2023-01-19T19:24:06.764Z,3.10
2023-01-19T19:26:35.663Z,3.83
2023-01-19T19:29:04.745Z,3.37
2023-01-19T19:31:33.767Z,4.10
2023-01-19T19:34:02.542Z,2.23
2023-01-19T19:36:33.565Z,2.90
2023-01-19T19:39:02.325Z,2.57
2023-01-19T19:41:32.778Z,3.50
2023-01-19T19:44:01.798Z,2.67
2023-01-19T19:46:30.574Z,2.93
2023-01-19T19:48:59.349Z,2.97
2023-01-19T19:51:29.418Z,3.78
2023-01-19T19:54:00.045Z,2.83
2023-01-19T19:56:30.248Z,3.07
2023-01-19T19:59:02.956Z,2.60
2023-01-19T20:01:33.918Z,2.43
2023-01-19T20:04:08.524Z,10.47
2023-01-19T20:06:39.949Z,2.93
2023-01-19T20:09:12.865Z,3.23
2023-01-19T20:11:42.315Z,3.90
2023-01-19T20:14:14.095Z,3.80
2023-01-19T20:16:43.169Z,2.93
2023-01-19T20:19:11.812Z,2.80
2023-01-19T20:21:42.951Z,2.90
2023-01-19T20:24:14.745Z,3.07
2023-01-19T20:26:47.225Z,2.73
2023-01-19T20:29:18.057Z,3.27
2023-01-19T20:31:48.883Z,4.00
2023-01-19T20:34:19.806Z,4.87
2023-01-19T20:36:50.386Z,4.10
2023-01-19T20:39:21.771Z,3.77
2023-01-19T20:41:51.464Z,3.60
2023-01-19T20:44:26.884Z,3.80
2023-01-19T20:46:56.893Z,3.70
2023-01-19T20:49:26.793Z,3.33
2023-01-19T20:51:55.682Z,4.27
2023-01-19T20:54:28.026Z,4.13
2023-01-19T20:56:57.573Z,2.73
2023-01-19T20:59:28.128Z,3.10
2023-01-19T21:01:57.009Z,3.40
2023-01-19T21:04:26.276Z,3.70
2023-01-19T21:06:55.918Z,3.37
2023-01-19T21:09:24.837Z,2.07
2023-01-19T21:11:56.550Z,2.90
2023-01-19T21:14:28.247Z,2.20
2023-01-19T21:16:58.898Z,1.70
2023-01-19T21:19:29.007Z,2.23
2023-01-19T21:21:58.742Z,1.90
2023-01-19T21:24:29.535Z,1.93
2023-01-19T21:26:59.486Z,2.27
2023-01-19T21:29:31.201Z,4.30
2023-01-19T21:32:01.292Z,3.20
2023-01-19T21:34:30.776Z,2.97
2023-01-19T21:37:00.228Z,3.27
2023-01-19T21:39:29.344Z,2.87
2023-01-19T21:41:58.239Z,2.20
2023-01-19T21:44:27.044Z,1.97
2023-01-19T21:46:57.532Z,1.80
2023-01-19T21:49:26.330Z,1.87
2023-01-19T21:51:55.475Z,1.50
2023-01-19T21:54:25.077Z,1.63
2023-01-19T21:56:53.869Z,2.07
2023-01-19T21:59:22.901Z,1.50
2023-01-19T22:01:51.605Z,2.33
2023-01-19T22:04:22.369Z,2.23
2023-01-19T22:06:51.208Z,1.00
2023-01-19T22:09:19.812Z,0.70
2023-01-19T22:11:48.553Z,0.90
2023-01-19T22:14:17.157Z,1.13
2023-01-19T22:16:45.884Z,1.03
2023-01-19T22:19:14.617Z,0.90
2023-01-19T22:21:44.638Z,0.70
2023-01-19T22:24:13.709Z,0.80
2023-01-19T22:26:42.337Z,0.50
2023-01-19T22:29:12.156Z,0.60
2023-01-19T22:31:41.171Z,0.50
2023-01-19T22:34:10.958Z,0.40
2023-01-19T22:36:39.948Z,0.50
2023-01-19T22:39:11.390Z,0.50
2023-01-19T22:41:43.215Z,0.67
2023-01-19T22:44:14.385Z,0.50
2023-01-19T22:46:43.666Z,1.07
2023-01-19T22:49:14.954Z,0.50
2023-01-19T22:51:44.038Z,0.67
2023-01-19T22:54:14.442Z,0.70
2023-01-19T22:56:43.805Z,0.60
2023-01-19T22:59:12.618Z,0.70
2023-01-19T23:01:43.292Z,0.47
2023-01-19T23:04:14.557Z,0.40
2023-01-19T23:06:43.994Z,0.70
2023-01-19T23:09:15.517Z,0.60
2023-01-19T23:11:48.593Z,0.93
2023-01-19T23:14:19.389Z,0.70
2023-01-19T23:16:48.421Z,0.70
2023-01-19T23:19:18.298Z,0.70
2023-01-19T23:21:47.418Z,0.70
2023-01-19T23:24:17.527Z,0.77
2023-01-19T23:26:46.135Z,0.73
2023-01-19T23:29:18.139Z,0.80
2023-01-19T23:31:48.552Z,0.83
2023-01-19T23:34:17.616Z,0.90
2023-01-19T23:36:46.633Z,0.60
2023-01-19T23:39:18.142Z,0.43
2023-01-19T23:41:47.071Z,0.37
2023-01-19T23:44:15.991Z,0.80
2023-01-19T23:46:45.164Z,0.40
2023-01-19T23:49:13.810Z,0.50
2023-01-19T23:51:42.907Z,0.53
2023-01-19T23:54:12.406Z,0.70
2023-01-19T23:56:43.451Z,0.90
2023-01-19T23:59:13.662Z,0.90
